sensor_id;sensor_type;location;lat;lon;timestamp;P1;durP1;ratioP1;P2;durP2;ratioP2
45620;SDS011;31345;51.522;10.702;2023-02-03T00:01:26;5.20;;;3.57;;
45620;SDS011;31345;51.522;10.702;2023-02-03T00:03:55;5.40;;;3.60;;
45620;SDS011;31345;51.522;10.702;2023-02-03T00:06:27;4.67;;;3.37;;
45620;SDS011;31345;51.522;10.702;2023-02-03T00:08:56;5.27;;;3.63;;
45620;SDS011;31345;51.522;10.702;2023-02-03T00:11:31;4.97;;;3.30;;
45620;SDS011;31345;51.522;10.702;2023-02-03T00:13:59;4.20;;;3.37;;
45620;SDS011;31345;51.522;10.702;2023-02-03T00:16:31;5.13;;;3.03;;
45620;SDS011;31345;51.522;10.702;2023-02-03T00:19:00;4.57;;;3.00;;
45620;SDS011;31345;51.522;10.702;2023-02-03T00:21:33;4.30;;;3.20;;
45620;SDS011;31345;51.522;10.702;2023-02-03T00:24:01;5.37;;;3.60;;
45620;SDS011;31345;51.522;10.702;2023-02-03T00:26:33;5.53;;;3.57;;
45620;SDS011;31345;51.522;10.702;2023-02-03T00:29:01;5.67;;;3.97;;
45620;SDS011;31345;51.522;10.702;2023-02-03T00:31:29;6.23;;;4.70;;
45620;SDS011;31345;51.522;10.702;2023-02-03T00:33:57;5.43;;;4.43;;
45620;SDS011;31345;51.522;10.702;2023-02-03T00:36:26;6.93;;;5.57;;
45620;SDS011;31345;51.522;10.702;2023-02-03T00:38:59;7.67;;;6.30;;
45620;SDS011;31345;51.522;10.702;2023-02-03T00:41:32;8.77;;;4.70;;
45620;SDS011;31345;51.522;10.702;2023-02-03T00:43:59;8.07;;;6.00;;
45620;SDS011;31345;51.522;10.702;2023-02-03T00:46:28;8.57;;;6.67;;
45620;SDS011;31345;51.522;10.702;2023-02-03T00:49:01;8.37;;;6.17;;
45620;SDS011;31345;51.522;10.702;2023-02-03T00:51:35;8.63;;;5.97;;
45620;SDS011;31345;51.522;10.702;2023-02-03T00:54:07;9.63;;;5.83;;
45620;SDS011;31345;51.522;10.702;2023-02-03T00:56:41;8.13;;;5.77;;
45620;SDS011;31345;51.522;10.702;2023-02-03T00:59:08;8.00;;;4.97;;
45620;SDS011;31345;51.522;10.702;2023-02-03T01:01:41;7.60;;;5.50;;
45620;SDS011;31345;51.522;10.702;2023-02-03T01:04:13;7.97;;;5.57;;
45620;SDS011;31345;51.522;10.702;2023-02-03T01:06:47;7.90;;;5.17;;
45620;SDS011;31345;51.522;10.702;2023-02-03T01:09:15;7.83;;;5.50;;
45620;SDS011;31345;51.522;10.702;2023-02-03T01:11:47;7.87;;;5.67;;
45620;SDS011;31345;51.522;10.702;2023-02-03T01:14:15;9.27;;;5.77;;
45620;SDS011;31345;51.522;10.702;2023-02-03T01:16:43;10.67;;;6.03;;
45620;SDS011;31345;51.522;10.702;2023-02-03T01:19:11;9.70;;;5.83;;
45620;SDS011;31345;51.522;10.702;2023-02-03T01:21:44;9.97;;;5.70;;
45620;SDS011;31345;51.522;10.702;2023-02-03T01:24:18;9.40;;;6.40;;
45620;SDS011;31345;51.522;10.702;2023-02-03T01:26:51;9.47;;;6.27;;
45620;SDS011;31345;51.522;10.702;2023-02-03T01:29:23;8.77;;;5.67;;
45620;SDS011;31345;51.522;10.702;2023-02-03T01:31:56;8.60;;;5.80;;
45620;SDS011;31345;51.522;10.702;2023-02-03T01:34:28;9.97;;;6.00;;
45620;SDS011;31345;51.522;10.702;2023-02-03T01:36:56;8.37;;;5.90;;
45620;SDS011;31345;51.522;10.702;2023-02-03T01:39:30;10.33;;;6.90;;
45620;SDS011;31345;51.522;10.702;2023-02-03T01:41:59;11.90;;;8.07;;
45620;SDS011;31345;51.522;10.702;2023-02-03T01:44:41;13.47;;;8.30;;
45620;SDS011;31345;51.522;10.702;2023-02-03T01:47:19;12.53;;;8.03;;
45620;SDS011;31345;51.522;10.702;2023-02-03T01:50:00;14.37;;;8.20;;
45620;SDS011;31345;51.522;10.702;2023-02-03T01:52:37;18.57;;;9.57;;
45620;SDS011;31345;51.522;10.702;2023-02-03T01:55:15;12.20;;;8.60;;
45620;SDS011;31345;51.522;10.702;2023-02-03T01:57:46;15.00;;;9.70;;
45620;SDS011;31345;51.522;10.702;2023-02-03T02:00:17;17.73;;;10.30;;
45620;SDS011;31345;51.522;10.702;2023-02-03T02:02:50;18.27;;;11.43;;
45620;SDS011;31345;51.522;10.702;2023-02-03T02:05:19;22.33;;;14.37;;
45620;SDS011;31345;51.522;10.702;2023-02-03T02:07:57;30.17;;;15.73;;
45620;SDS011;31345;51.522;10.702;2023-02-03T02:10:33;31.40;;;17.20;;
45620;SDS011;31345;51.522;10.702;2023-02-03T02:13:06;30.47;;;17.20;;
45620;SDS011;31345;51.522;10.702;2023-02-03T02:15:42;25.07;;;15.83;;
45620;SDS011;31345;51.522;10.702;2023-02-03T02:18:23;30.13;;;18.53;;
45620;SDS011;31345;51.522;10.702;2023-02-03T02:21:04;34.77;;;18.17;;
45620;SDS011;31345;51.522;10.702;2023-02-03T02:23:50;33.33;;;19.10;;
45620;SDS011;31345;51.522;10.702;2023-02-03T02:29:57;36.47;;;21.07;;
45620;SDS011;31345;51.522;10.702;2023-02-03T02:32:50;37.38;;;21.83;;
45620;SDS011;31345;51.522;10.702;2023-02-03T02:35:42;40.13;;;22.67;;
45620;SDS011;31345;51.522;10.702;2023-02-03T02:38:16;37.40;;;21.60;;
45620;SDS011;31345;51.522;10.702;2023-02-03T02:41:00;36.03;;;21.10;;
45620;SDS011;31345;51.522;10.702;2023-02-03T02:43:38;39.05;;;20.65;;
45620;SDS011;31345;51.522;10.702;2023-02-03T02:46:13;33.53;;;19.30;;
45620;SDS011;31345;51.522;10.702;2023-02-03T02:48:51;32.13;;;18.33;;
45620;SDS011;31345;51.522;10.702;2023-02-03T02:51:23;30.17;;;17.67;;
45620;SDS011;31345;51.522;10.702;2023-02-03T02:53:57;25.97;;;15.90;;
45620;SDS011;31345;51.522;10.702;2023-02-03T02:56:35;23.47;;;16.03;;
45620;SDS011;31345;51.522;10.702;2023-02-03T02:59:09;24.20;;;15.17;;
45620;SDS011;31345;51.522;10.702;2023-02-03T03:01:43;27.03;;;16.03;;
45620;SDS011;31345;51.522;10.702;2023-02-03T03:04:18;27.17;;;17.67;;
45620;SDS011;31345;51.522;10.702;2023-02-03T03:06:54;30.52;;;17.13;;
45620;SDS011;31345;51.522;10.702;2023-02-03T03:09:32;27.00;;;16.60;;
45620;SDS011;31345;51.522;10.702;2023-02-03T03:12:09;29.03;;;17.53;;
45620;SDS011;31345;51.522;10.702;2023-02-03T03:14:45;28.80;;;17.80;;
45620;SDS011;31345;51.522;10.702;2023-02-03T03:17:22;27.47;;;17.73;;
45620;SDS011;31345;51.522;10.702;2023-02-03T03:20:00;28.67;;;17.93;;
45620;SDS011;31345;51.522;10.702;2023-02-03T03:22:39;28.80;;;18.97;;
45620;SDS011;31345;51.522;10.702;2023-02-03T03:25:17;32.90;;;18.60;;
45620;SDS011;31345;51.522;10.702;2023-02-03T03:27:47;25.98;;;17.90;;
45620;SDS011;31345;51.522;10.702;2023-02-03T03:30:19;30.23;;;18.92;;
45620;SDS011;31345;51.522;10.702;2023-02-03T03:32:56;29.20;;;17.90;;
45620;SDS011;31345;51.522;10.702;2023-02-03T03:35:27;28.97;;;18.23;;
45620;SDS011;31345;51.522;10.702;2023-02-03T03:38:08;30.50;;;18.93;;
45620;SDS011;31345;51.522;10.702;2023-02-03T03:40:48;27.95;;;17.77;;
45620;SDS011;31345;51.522;10.702;2023-02-03T03:43:22;26.90;;;17.67;;
45620;SDS011;31345;51.522;10.702;2023-02-03T03:46:00;30.50;;;18.63;;
45620;SDS011;31345;51.522;10.702;2023-02-03T03:48:40;26.43;;;17.43;;
45620;SDS011;31345;51.522;10.702;2023-02-03T03:51:20;31.07;;;19.87;;
45620;SDS011;31345;51.522;10.702;2023-02-03T03:53:59;32.20;;;18.17;;
45620;SDS011;31345;51.522;10.702;2023-02-03T03:56:37;24.80;;;16.88;;
45620;SDS011;31345;51.522;10.702;2023-02-03T03:59:09;26.05;;;17.33;;
45620;SDS011;31345;51.522;10.702;2023-02-03T04:01:45;30.30;;;17.63;;
45620;SDS011;31345;51.522;10.702;2023-02-03T04:04:14;26.07;;;16.80;;
45620;SDS011;31345;51.522;10.702;2023-02-03T04:06:44;23.80;;;16.48;;
45620;SDS011;31345;51.522;10.702;2023-02-03T04:09:16;23.33;;;16.23;;
45620;SDS011;31345;51.522;10.702;2023-02-03T04:11:44;23.87;;;16.20;;
45620;SDS011;31345;51.522;10.702;2023-02-03T04:14:36;27.90;;;16.57;;
45620;SDS011;31345;51.522;10.702;2023-02-03T04:17:09;25.83;;;16.67;;
45620;SDS011;31345;51.522;10.702;2023-02-03T04:19:37;25.77;;;17.63;;
45620;SDS011;31345;51.522;10.702;2023-02-03T04:22:11;27.63;;;16.13;;
45620;SDS011;31345;51.522;10.702;2023-02-03T04:24:38;28.43;;;17.87;;
45620;SDS011;31345;51.522;10.702;2023-02-03T04:27:11;29.40;;;16.40;;
45620;SDS011;31345;51.522;10.702;2023-02-03T04:29:44;24.83;;;15.73;;
45620;SDS011;31345;51.522;10.702;2023-02-03T04:32:17;24.33;;;15.57;;
45620;SDS011;31345;51.522;10.702;2023-02-03T04:34:50;24.70;;;16.20;;
45620;SDS011;31345;51.522;10.702;2023-02-03T04:37:24;24.87;;;17.00;;
45620;SDS011;31345;51.522;10.702;2023-02-03T04:39:52;27.23;;;15.93;;
45620;SDS011;31345;51.522;10.702;2023-02-03T04:42:20;27.63;;;16.83;;
45620;SDS011;31345;51.522;10.702;2023-02-03T04:44:53;25.40;;;17.07;;
45620;SDS011;31345;51.522;10.702;2023-02-03T04:47:25;25.58;;;16.15;;
45620;SDS011;31345;51.522;10.702;2023-02-03T04:49:58;22.27;;;14.93;;
45620;SDS011;31345;51.522;10.702;2023-02-03T04:52:32;27.38;;;16.80;;
45620;SDS011;31345;51.522;10.702;2023-02-03T04:55:00;26.67;;;16.97;;
45620;SDS011;31345;51.522;10.702;2023-02-03T04:57:34;26.33;;;17.50;;
45620;SDS011;31345;51.522;10.702;2023-02-03T05:00:01;23.60;;;16.40;;
45620;SDS011;31345;51.522;10.702;2023-02-03T05:02:34;28.55;;;18.90;;
45620;SDS011;31345;51.522;10.702;2023-02-03T05:05:07;28.20;;;17.55;;
45620;SDS011;31345;51.522;10.702;2023-02-03T05:07:41;25.38;;;16.45;;
45620;SDS011;31345;51.522;10.702;2023-02-03T05:10:08;25.63;;;17.10;;
45620;SDS011;31345;51.522;10.702;2023-02-03T05:12:41;23.15;;;15.02;;
45620;SDS011;31345;51.522;10.702;2023-02-03T05:15:14;22.95;;;14.43;;
45620;SDS011;31345;51.522;10.702;2023-02-03T05:17:42;24.02;;;14.27;;
45620;SDS011;31345;51.522;10.702;2023-02-03T05:20:14;21.83;;;14.10;;
45620;SDS011;31345;51.522;10.702;2023-02-03T05:22:48;23.20;;;15.32;;
45620;SDS011;31345;51.522;10.702;2023-02-03T05:25:21;25.17;;;14.88;;
45620;SDS011;31345;51.522;10.702;2023-02-03T05:27:48;22.02;;;14.32;;
45620;SDS011;31345;51.522;10.702;2023-02-03T05:30:21;20.55;;;14.23;;
45620;SDS011;31345;51.522;10.702;2023-02-03T05:32:53;21.50;;;14.23;;
45620;SDS011;31345;51.522;10.702;2023-02-03T05:35:26;20.10;;;13.13;;
45620;SDS011;31345;51.522;10.702;2023-02-03T05:38:00;20.02;;;13.10;;
45620;SDS011;31345;51.522;10.702;2023-02-03T05:40:33;22.67;;;13.57;;
45620;SDS011;31345;51.522;10.702;2023-02-03T05:43:23;21.50;;;13.83;;
45620;SDS011;31345;51.522;10.702;2023-02-03T05:45:50;20.20;;;13.30;;
45620;SDS011;31345;51.522;10.702;2023-02-03T05:48:23;19.52;;;13.13;;
45620;SDS011;31345;51.522;10.702;2023-02-03T05:50:56;20.25;;;14.30;;
45620;SDS011;31345;51.522;10.702;2023-02-03T05:53:25;21.48;;;13.57;;
45620;SDS011;31345;51.522;10.702;2023-02-03T05:55:58;17.23;;;13.00;;
45620;SDS011;31345;51.522;10.702;2023-02-03T05:58:25;18.80;;;13.30;;
45620;SDS011;31345;51.522;10.702;2023-02-03T06:00:58;18.17;;;12.73;;
45620;SDS011;31345;51.522;10.702;2023-02-03T06:03:30;21.33;;;13.27;;
45620;SDS011;31345;51.522;10.702;2023-02-03T06:05:58;18.23;;;12.37;;
45620;SDS011;31345;51.522;10.702;2023-02-03T06:08:32;18.70;;;13.02;;
45620;SDS011;31345;51.522;10.702;2023-02-03T06:11:04;17.58;;;12.30;;
45620;SDS011;31345;51.522;10.702;2023-02-03T06:13:37;18.90;;;12.47;;
45620;SDS011;31345;51.522;10.702;2023-02-03T06:16:05;21.75;;;12.05;;
45620;SDS011;31345;51.522;10.702;2023-02-03T06:18:38;17.60;;;11.65;;
45620;SDS011;31345;51.522;10.702;2023-02-03T06:21:10;20.40;;;12.73;;
45620;SDS011;31345;51.522;10.702;2023-02-03T06:23:39;18.60;;;12.13;;
45620;SDS011;31345;51.522;10.702;2023-02-03T06:26:12;17.30;;;11.57;;
45620;SDS011;31345;51.522;10.702;2023-02-03T06:28:44;15.93;;;10.90;;
45620;SDS011;31345;51.522;10.702;2023-02-03T06:31:12;17.45;;;11.05;;
45620;SDS011;31345;51.522;10.702;2023-02-03T06:33:39;13.95;;;10.77;;
45620;SDS011;31345;51.522;10.702;2023-02-03T06:36:12;17.07;;;11.83;;
45620;SDS011;31345;51.522;10.702;2023-02-03T06:38:41;14.50;;;10.83;;
45620;SDS011;31345;51.522;10.702;2023-02-03T06:41:08;18.63;;;11.70;;
45620;SDS011;31345;51.522;10.702;2023-02-03T06:43:40;16.83;;;11.20;;
45620;SDS011;31345;51.522;10.702;2023-02-03T06:46:13;18.40;;;12.00;;
45620;SDS011;31345;51.522;10.702;2023-02-03T06:48:40;16.77;;;11.00;;
45620;SDS011;31345;51.522;10.702;2023-02-03T06:51:13;16.00;;;11.13;;
45620;SDS011;31345;51.522;10.702;2023-02-03T06:53:47;16.33;;;11.20;;
45620;SDS011;31345;51.522;10.702;2023-02-03T06:56:14;14.75;;;11.23;;
45620;SDS011;31345;51.522;10.702;2023-02-03T06:58:42;17.47;;;11.33;;
45620;SDS011;31345;51.522;10.702;2023-02-03T07:01:15;17.02;;;11.82;;
45620;SDS011;31345;51.522;10.702;2023-02-03T07:03:42;16.58;;;11.60;;
45620;SDS011;31345;51.522;10.702;2023-02-03T07:06:15;16.83;;;11.20;;
45620;SDS011;31345;51.522;10.702;2023-02-03T07:08:49;17.75;;;12.50;;
45620;SDS011;31345;51.522;10.702;2023-02-03T07:11:21;18.45;;;12.60;;
45620;SDS011;31345;51.522;10.702;2023-02-03T07:13:54;21.03;;;12.70;;
45620;SDS011;31345;51.522;10.702;2023-02-03T07:16:27;16.27;;;11.77;;
45620;SDS011;31345;51.522;10.702;2023-02-03T07:18:59;18.55;;;11.80;;
45620;SDS011;31345;51.522;10.702;2023-02-03T07:21:32;18.02;;;12.38;;
45620;SDS011;31345;51.522;10.702;2023-02-03T07:24:00;18.55;;;12.10;;
45620;SDS011;31345;51.522;10.702;2023-02-03T07:26:33;17.70;;;11.33;;
45620;SDS011;31345;51.522;10.702;2023-02-03T07:29:06;16.70;;;11.38;;
45620;SDS011;31345;51.522;10.702;2023-02-03T07:31:33;17.00;;;11.45;;
45620;SDS011;31345;51.522;10.702;2023-02-03T07:34:06;16.23;;;11.02;;
45620;SDS011;31345;51.522;10.702;2023-02-03T07:36:39;20.10;;;11.43;;
45620;SDS011;31345;51.522;10.702;2023-02-03T07:39:08;17.45;;;10.75;;
45620;SDS011;31345;51.522;10.702;2023-02-03T07:41:41;20.20;;;12.27;;
45620;SDS011;31345;51.522;10.702;2023-02-03T07:44:08;18.17;;;11.40;;
45620;SDS011;31345;51.522;10.702;2023-02-03T07:46:36;16.73;;;10.43;;
45620;SDS011;31345;51.522;10.702;2023-02-03T07:49:14;18.08;;;11.25;;
45620;SDS011;31345;51.522;10.702;2023-02-03T07:51:47;14.30;;;11.25;;
45620;SDS011;31345;51.522;10.702;2023-02-03T07:54:21;16.50;;;11.53;;
45620;SDS011;31345;51.522;10.702;2023-02-03T07:56:53;17.60;;;11.40;;
45620;SDS011;31345;51.522;10.702;2023-02-03T07:59:21;15.83;;;10.13;;
45620;SDS011;31345;51.522;10.702;2023-02-03T08:01:48;17.10;;;10.93;;
45620;SDS011;31345;51.522;10.702;2023-02-03T08:04:21;20.08;;;11.50;;
45620;SDS011;31345;51.522;10.702;2023-02-03T08:06:54;18.13;;;11.03;;
45620;SDS011;31345;51.522;10.702;2023-02-03T08:09:28;18.10;;;11.33;;
45620;SDS011;31345;51.522;10.702;2023-02-03T08:12:00;17.90;;;11.53;;
45620;SDS011;31345;51.522;10.702;2023-02-03T08:14:33;17.98;;;11.60;;
45620;SDS011;31345;51.522;10.702;2023-02-03T08:17:06;17.08;;;12.88;;
45620;SDS011;31345;51.522;10.702;2023-02-03T08:19:38;18.48;;;11.15;;
45620;SDS011;31345;51.522;10.702;2023-02-03T08:22:11;16.97;;;11.10;;
45620;SDS011;31345;51.522;10.702;2023-02-03T08:24:47;14.15;;;10.68;;
45620;SDS011;31345;51.522;10.702;2023-02-03T08:27:20;15.45;;;10.48;;
45620;SDS011;31345;51.522;10.702;2023-02-03T08:29:48;17.33;;;10.82;;
45620;SDS011;31345;51.522;10.702;2023-02-03T08:32:21;17.70;;;10.65;;
45620;SDS011;31345;51.522;10.702;2023-02-03T08:34:49;14.40;;;9.63;;
45620;SDS011;31345;51.522;10.702;2023-02-03T08:37:23;14.40;;;10.07;;
45620;SDS011;31345;51.522;10.702;2023-02-03T08:39:57;13.43;;;9.57;;
45620;SDS011;31345;51.522;10.702;2023-02-03T08:42:31;14.03;;;9.63;;
45620;SDS011;31345;51.522;10.702;2023-02-03T08:44:58;14.85;;;10.40;;
45620;SDS011;31345;51.522;10.702;2023-02-03T08:47:31;15.55;;;10.95;;
45620;SDS011;31345;51.522;10.702;2023-02-03T08:50:04;17.27;;;13.85;;
45620;SDS011;31345;51.522;10.702;2023-02-03T08:52:38;21.40;;;13.48;;
45620;SDS011;31345;51.522;10.702;2023-02-03T08:55:12;37.88;;;25.30;;
45620;SDS011;31345;51.522;10.702;2023-02-03T08:57:45;19.33;;;12.10;;
45620;SDS011;31345;51.522;10.702;2023-02-03T09:00:18;19.45;;;12.15;;
45620;SDS011;31345;51.522;10.702;2023-02-03T09:02:46;8.83;;;7.20;;
45620;SDS011;31345;51.522;10.702;2023-02-03T09:05:19;13.85;;;8.32;;
45620;SDS011;31345;51.522;10.702;2023-02-03T09:07:51;8.65;;;6.60;;
45620;SDS011;31345;51.522;10.702;2023-02-03T09:10:25;8.60;;;6.40;;
45620;SDS011;31345;51.522;10.702;2023-02-03T09:12:53;8.38;;;5.32;;
45620;SDS011;31345;51.522;10.702;2023-02-03T09:15:25;6.63;;;5.60;;
45620;SDS011;31345;51.522;10.702;2023-02-03T09:17:53;7.63;;;5.43;;
45620;SDS011;31345;51.522;10.702;2023-02-03T09:20:27;7.85;;;5.45;;
45620;SDS011;31345;51.522;10.702;2023-02-03T09:22:59;7.57;;;4.53;;
45620;SDS011;31345;51.522;10.702;2023-02-03T09:25:33;7.88;;;4.78;;
45620;SDS011;31345;51.522;10.702;2023-02-03T09:28:01;6.88;;;5.20;;
45620;SDS011;31345;51.522;10.702;2023-02-03T09:30:34;7.00;;;5.40;;
45620;SDS011;31345;51.522;10.702;2023-02-03T09:33:02;6.68;;;5.22;;
45620;SDS011;31345;51.522;10.702;2023-02-03T09:35:34;7.30;;;5.88;;
45620;SDS011;31345;51.522;10.702;2023-02-03T09:38:01;7.63;;;5.35;;
45620;SDS011;31345;51.522;10.702;2023-02-03T09:40:30;7.77;;;5.03;;
45620;SDS011;31345;51.522;10.702;2023-02-03T09:43:14;6.75;;;4.90;;
45620;SDS011;31345;51.522;10.702;2023-02-03T09:46:01;6.50;;;5.30;;
45620;SDS011;31345;51.522;10.702;2023-02-03T09:48:37;6.45;;;5.13;;
45620;SDS011;31345;51.522;10.702;2023-02-03T09:51:14;6.25;;;5.05;;
45620;SDS011;31345;51.522;10.702;2023-02-03T09:53:52;6.53;;;4.90;;
45620;SDS011;31345;51.522;10.702;2023-02-03T09:56:29;5.55;;;4.82;;
45620;SDS011;31345;51.522;10.702;2023-02-03T09:59:07;6.10;;;4.70;;
45620;SDS011;31345;51.522;10.702;2023-02-03T10:01:42;9.05;;;6.43;;
45620;SDS011;31345;51.522;10.702;2023-02-03T10:04:24;5.15;;;4.20;;
45620;SDS011;31345;51.522;10.702;2023-02-03T10:07:01;6.55;;;4.50;;
45620;SDS011;31345;51.522;10.702;2023-02-03T10:09:44;5.70;;;4.70;;
45620;SDS011;31345;51.522;10.702;2023-02-03T10:12:33;6.07;;;4.68;;
45620;SDS011;31345;51.522;10.702;2023-02-03T10:15:32;6.10;;;4.47;;
45620;SDS011;31345;51.522;10.702;2023-02-03T10:18:15;5.93;;;4.65;;
45620;SDS011;31345;51.522;10.702;2023-02-03T10:20:52;6.57;;;5.03;;
45620;SDS011;31345;51.522;10.702;2023-02-03T10:23:28;6.10;;;4.68;;
45620;SDS011;31345;51.522;10.702;2023-02-03T10:26:05;6.40;;;4.60;;
45620;SDS011;31345;51.522;10.702;2023-02-03T10:28:40;6.38;;;4.78;;
45620;SDS011;31345;51.522;10.702;2023-02-03T10:31:21;5.80;;;3.95;;
45620;SDS011;31345;51.522;10.702;2023-02-03T10:33:52;5.68;;;4.20;;
45620;SDS011;31345;51.522;10.702;2023-02-03T10:36:32;5.90;;;4.47;;
45620;SDS011;31345;51.522;10.702;2023-02-03T10:39:15;47.53;;;33.72;;
45620;SDS011;31345;51.522;10.702;2023-02-03T10:41:55;25.53;;;19.17;;
45620;SDS011;31345;51.522;10.702;2023-02-03T10:44:30;8.37;;;6.23;;
45620;SDS011;31345;51.522;10.702;2023-02-03T10:47:15;9.80;;;5.78;;
45620;SDS011;31345;51.522;10.702;2023-02-03T10:49:48;6.80;;;4.67;;
45620;SDS011;31345;51.522;10.702;2023-02-03T10:52:29;9.55;;;5.80;;
45620;SDS011;31345;51.522;10.702;2023-02-03T10:54:59;7.00;;;5.22;;
45620;SDS011;31345;51.522;10.702;2023-02-03T10:57:37;8.82;;;5.20;;
45620;SDS011;31345;51.522;10.702;2023-02-03T11:00:07;8.13;;;4.97;;
45620;SDS011;31345;51.522;10.702;2023-02-03T11:02:57;8.48;;;5.97;;
45620;SDS011;31345;51.522;10.702;2023-02-03T11:05:30;7.60;;;5.50;;
45620;SDS011;31345;51.522;10.702;2023-02-03T11:07:58;7.15;;;5.35;;
45620;SDS011;31345;51.522;10.702;2023-02-03T11:10:32;9.02;;;5.15;;
45620;SDS011;31345;51.522;10.702;2023-02-03T11:13:16;8.70;;;5.82;;
45620;SDS011;31345;51.522;10.702;2023-02-03T11:15:52;10.43;;;6.00;;
45620;SDS011;31345;51.522;10.702;2023-02-03T11:18:34;7.43;;;5.32;;
45620;SDS011;31345;51.522;10.702;2023-02-03T11:21:11;7.60;;;5.60;;
45620;SDS011;31345;51.522;10.702;2023-02-03T11:23:48;8.90;;;7.32;;
45620;SDS011;31345;51.522;10.702;2023-02-03T11:26:25;9.70;;;5.82;;
45620;SDS011;31345;51.522;10.702;2023-02-03T11:29:01;10.70;;;7.22;;
45620;SDS011;31345;51.522;10.702;2023-02-03T11:31:36;10.55;;;7.43;;
45620;SDS011;31345;51.522;10.702;2023-02-03T11:34:14;9.68;;;7.20;;
45620;SDS011;31345;51.522;10.702;2023-02-03T11:36:49;12.27;;;7.88;;
45620;SDS011;31345;51.522;10.702;2023-02-03T11:39:26;12.10;;;7.05;;
45620;SDS011;31345;51.522;10.702;2023-02-03T11:42:00;12.68;;;7.72;;
45620;SDS011;31345;51.522;10.702;2023-02-03T11:44:33;11.57;;;8.15;;
45620;SDS011;31345;51.522;10.702;2023-02-03T11:47:06;9.45;;;7.35;;
45620;SDS011;31345;51.522;10.702;2023-02-03T11:50:02;14.77;;;8.05;;
45620;SDS011;31345;51.522;10.702;2023-02-03T11:55:46;10.23;;;6.40;;
45620;SDS011;31345;51.522;10.702;2023-02-03T11:58:35;10.50;;;6.75;;
45620;SDS011;31345;51.522;10.702;2023-02-03T12:01:20;8.02;;;6.25;;
45620;SDS011;31345;51.522;10.702;2023-02-03T12:04:19;10.60;;;5.90;;
45620;SDS011;31345;51.522;10.702;2023-02-03T12:07:08;8.88;;;5.63;;
45620;SDS011;31345;51.522;10.702;2023-02-03T12:12:46;9.38;;;4.55;;
45620;SDS011;31345;51.522;10.702;2023-02-03T12:15:41;7.15;;;3.70;;
45620;SDS011;31345;51.522;10.702;2023-02-03T12:18:35;5.93;;;2.95;;
45620;SDS011;31345;51.522;10.702;2023-02-03T12:21:32;2.15;;;1.48;;
45620;SDS011;31345;51.522;10.702;2023-02-03T12:24:27;1.98;;;1.17;;
45620;SDS011;31345;51.522;10.702;2023-02-03T12:27:10;1.98;;;1.10;;
45620;SDS011;31345;51.522;10.702;2023-02-03T12:29:53;7.97;;;2.15;;
45620;SDS011;31345;51.522;10.702;2023-02-03T12:32:28;8.75;;;2.08;;
45620;SDS011;31345;51.522;10.702;2023-02-03T12:35:10;7.30;;;2.47;;
45620;SDS011;31345;51.522;10.702;2023-02-03T12:37:44;8.57;;;2.67;;
45620;SDS011;31345;51.522;10.702;2023-02-03T12:40:34;10.30;;;2.08;;
45620;SDS011;31345;51.522;10.702;2023-02-03T12:43:14;10.43;;;2.47;;
45620;SDS011;31345;51.522;10.702;2023-02-03T12:45:50;12.93;;;2.72;;
45620;SDS011;31345;51.522;10.702;2023-02-03T12:48:25;10.30;;;2.20;;
45620;SDS011;31345;51.522;10.702;2023-02-03T12:51:07;11.63;;;3.55;;
45620;SDS011;31345;51.522;10.702;2023-02-03T12:53:46;10.13;;;2.70;;
45620;SDS011;31345;51.522;10.702;2023-02-03T12:56:26;8.88;;;2.65;;
45620;SDS011;31345;51.522;10.702;2023-02-03T12:59:02;7.47;;;2.35;;
45620;SDS011;31345;51.522;10.702;2023-02-03T13:01:40;11.55;;;2.75;;
45620;SDS011;31345;51.522;10.702;2023-02-03T13:04:13;10.73;;;3.60;;
45620;SDS011;31345;51.522;10.702;2023-02-03T13:06:56;7.97;;;2.30;;
45620;SDS011;31345;51.522;10.702;2023-02-03T13:09:36;13.15;;;3.10;;
45620;SDS011;31345;51.522;10.702;2023-02-03T13:12:10;14.43;;;4.70;;
45620;SDS011;31345;51.522;10.702;2023-02-03T13:14:51;11.23;;;2.58;;
45620;SDS011;31345;51.522;10.702;2023-02-03T13:17:24;13.20;;;2.83;;
45620;SDS011;31345;51.522;10.702;2023-02-03T13:20:01;11.07;;;2.85;;
45620;SDS011;31345;51.522;10.702;2023-02-03T13:22:38;12.95;;;3.33;;
45620;SDS011;31345;51.522;10.702;2023-02-03T13:25:14;10.18;;;2.53;;
45620;SDS011;31345;51.522;10.702;2023-02-03T13:27:50;19.52;;;4.30;;
45620;SDS011;31345;51.522;10.702;2023-02-03T13:30:42;14.73;;;3.20;;
45620;SDS011;31345;51.522;10.702;2023-02-03T13:33:30;19.42;;;4.95;;
45620;SDS011;31345;51.522;10.702;2023-02-03T13:36:29;20.35;;;3.80;;
45620;SDS011;31345;51.522;10.702;2023-02-03T13:39:19;13.73;;;3.28;;
45620;SDS011;31345;51.522;10.702;2023-02-03T13:42:09;18.70;;;3.53;;
45620;SDS011;31345;51.522;10.702;2023-02-03T13:44:57;13.55;;;3.60;;
45620;SDS011;31345;51.522;10.702;2023-02-03T13:47:34;18.45;;;3.83;;
45620;SDS011;31345;51.522;10.702;2023-02-03T13:50:07;14.48;;;3.53;;
45620;SDS011;31345;51.522;10.702;2023-02-03T13:52:53;15.20;;;3.45;;
45620;SDS011;31345;51.522;10.702;2023-02-03T13:55:32;15.13;;;3.65;;
45620;SDS011;31345;51.522;10.702;2023-02-03T13:58:17;15.25;;;4.40;;
45620;SDS011;31345;51.522;10.702;2023-02-03T14:01:01;16.00;;;4.07;;
45620;SDS011;31345;51.522;10.702;2023-02-03T14:03:40;16.80;;;3.97;;
45620;SDS011;31345;51.522;10.702;2023-02-03T14:09:35;19.10;;;4.10;;
45620;SDS011;31345;51.522;10.702;2023-02-03T14:14:56;20.85;;;4.55;;
45620;SDS011;31345;51.522;10.702;2023-02-03T14:23:56;16.42;;;4.13;;
45620;SDS011;31345;51.522;10.702;2023-02-03T14:26:33;20.40;;;5.10;;
45620;SDS011;31345;51.522;10.702;2023-02-03T14:29:04;15.90;;;4.43;;
45620;SDS011;31345;51.522;10.702;2023-02-03T14:31:40;20.90;;;4.30;;
45620;SDS011;31345;51.522;10.702;2023-02-03T14:34:28;17.75;;;4.25;;
45620;SDS011;31345;51.522;10.702;2023-02-03T14:37:10;15.32;;;4.38;;
45620;SDS011;31345;51.522;10.702;2023-02-03T14:40:06;17.23;;;3.67;;
45620;SDS011;31345;51.522;10.702;2023-02-03T14:42:52;18.83;;;5.13;;
45620;SDS011;31345;51.522;10.702;2023-02-03T14:45:54;18.00;;;4.63;;
45620;SDS011;31345;51.522;10.702;2023-02-03T14:48:45;18.42;;;4.43;;
45620;SDS011;31345;51.522;10.702;2023-02-03T14:51:26;13.30;;;3.63;;
45620;SDS011;31345;51.522;10.702;2023-02-03T14:54:11;19.48;;;4.13;;
45620;SDS011;31345;51.522;10.702;2023-02-03T14:56:53;16.00;;;4.25;;
45620;SDS011;31345;51.522;10.702;2023-02-03T14:59:47;15.40;;;3.88;;
45620;SDS011;31345;51.522;10.702;2023-02-03T15:02:22;21.90;;;6.35;;
45620;SDS011;31345;51.522;10.702;2023-02-03T15:11:21;22.40;;;6.53;;
45620;SDS011;31345;51.522;10.702;2023-02-03T15:14:17;31.40;;;13.73;;
45620;SDS011;31345;51.522;10.702;2023-02-03T15:16:53;26.33;;;11.38;;
45620;SDS011;31345;51.522;10.702;2023-02-03T15:19:28;18.92;;;5.72;;
45620;SDS011;31345;51.522;10.702;2023-02-03T15:22:16;21.45;;;5.45;;
45620;SDS011;31345;51.522;10.702;2023-02-03T15:24:45;24.05;;;5.18;;
45620;SDS011;31345;51.522;10.702;2023-02-03T15:27:24;15.52;;;4.43;;
45620;SDS011;31345;51.522;10.702;2023-02-03T15:29:58;15.55;;;3.90;;
45620;SDS011;31345;51.522;10.702;2023-02-03T15:32:41;19.58;;;3.88;;
45620;SDS011;31345;51.522;10.702;2023-02-03T15:35:20;20.08;;;3.85;;